Time;durP1;ratioP1;P1;durP2;ratioP2;P2;SDS_P1;SDS_P2;PMS_P1;PMS_P2;Temp;Humidity;BMP_temperature;BMP_pressure;BME280_temperature;BME280_humidity;BME280_pressure;Samples;Min_cycle;Max_cycle;Signal;HPM_P1;HPM_P2
2022/06/29 00:00:37;;;;;;;0.50;0.37;;;17.60;99.90;;;;;;5101277;28;20486;-83
2022/06/29 00:03:05;;;;;;;0.50;0.30;;;17.50;99.90;;;;;;5099632;28;20467;-83
2022/06/29 00:05:32;;;;;;;0.50;0.30;;;17.50;99.90;;;;;;5100605;28;20439;-84
2022/06/29 00:07:58;;;;;;;0.50;0.30;;;17.60;99.90;;;;;;5099846;28;20963;-82
2022/06/29 00:10:27;;;;;;;0.50;0.40;;;17.50;99.90;;;;;;5099806;28;20495;-83
2022/06/29 00:12:54;;;;;;;0.50;0.33;;;17.50;99.90;;;;;;5122886;22;20588;-78
2022/06/29 00:15:22;;;;;;;0.50;0.30;;;17.50;99.90;;;;;;5040218;28;20463;-79
2022/06/29 00:17:49;;;;;;;0.50;0.30;;;17.50;99.90;;;;;;5055244;28;20519;-78
2022/06/29 00:20:17;;;;;;;0.50;0.40;;;17.40;99.90;;;;;;5054484;28;20830;-78
2022/06/29 00:22:45;;;;;;;0.50;0.40;;;17.40;99.90;;;;;;5071771;28;20550;-78
2022/06/29 00:25:13;;;;;;;1.17;1.07;;;17.30;99.90;;;;;;5074428;28;20527;-79
2022/06/29 00:27:42;;;;;;;0.50;0.40;;;17.30;99.90;;;;;;5074089;28;20787;-78
2022/06/29 00:30:10;;;;;;;0.50;0.40;;;17.30;99.90;;;;;;5074327;28;20470;-79
2022/06/29 00:32:37;;;;;;;0.50;0.37;;;17.20;99.90;;;;;;5073887;28;20509;-77
2022/06/29 00:35:05;;;;;;;0.50;0.40;;;17.20;99.90;;;;;;5074000;28;20436;-78
2022/06/29 00:37:32;;;;;;;0.50;0.33;;;17.10;99.90;;;;;;5080513;28;20446;-78
2022/06/29 00:39:59;;;;;;;0.50;0.40;;;17.00;99.90;;;;;;5080056;28;20475;-79
2022/06/29 00:42:26;;;;;;;0.50;0.40;;;17.00;99.90;;;;;;5080734;28;20465;-78
2022/06/29 00:44:54;;;;;;;0.50;0.40;;;17.00;99.90;;;;;;5074906;28;20442;-78
2022/06/29 00:47:22;;;;;;;0.50;0.40;;;17.00;99.90;;;;;;5073244;28;21104;-78
2022/06/29 00:49:49;;;;;;;0.50;0.40;;;17.00;99.90;;;;;;5073478;28;20437;-76
2022/06/29 00:52:18;;;;;;;0.50;0.40;;;17.00;99.90;;;;;;5073451;28;20512;-79
2022/06/29 00:54:46;;;;;;;0.60;0.53;;;17.00;99.90;;;;;;5073541;28;20514;-79
2022/06/29 00:57:16;;;;;;;0.50;0.33;;;16.90;99.90;;;;;;5073150;28;21040;-78
2022/06/29 00:59:45;;;;;;;0.50;0.30;;;17.00;99.90;;;;;;5073208;28;20475;-79
2022/06/29 01:02:16;;;;;;;0.50;0.40;;;17.00;99.90;;;;;;5073958;28;20543;-79
2022/06/29 01:04:44;;;;;;;0.50;0.40;;;17.00;99.90;;;;;;5073561;28;20798;-78
2022/06/29 01:07:13;;;;;;;0.50;0.40;;;17.00;99.90;;;;;;5073572;28;20536;-79
2022/06/29 01:09:40;;;;;;;0.50;0.40;;;17.00;99.90;;;;;;5073300;28;20441;-78
2022/06/29 01:12:08;;;;;;;0.50;0.40;;;17.00;99.90;;;;;;5072752;28;20562;-78
2022/06/29 01:14:35;;;;;;;0.50;0.40;;;17.00;99.90;;;;;;5073022;28;20450;-78
2022/06/29 01:17:02;;;;;;;0.50;0.40;;;17.00;99.90;;;;;;5072848;28;20535;-79
2022/06/29 01:19:30;;;;;;;0.50;0.40;;;17.00;99.90;;;;;;5073320;28;20444;-78
2022/06/29 01:22:07;;;;;;;0.50;0.30;;;17.00;99.90;;;;;;5072947;28;20482;-79
2022/06/29 01:24:34;;;;;;;0.50;0.40;;;17.10;99.90;;;;;;5072963;28;20443;-79
2022/06/29 01:27:01;;;;;;;0.50;0.30;;;16.90;99.90;;;;;;5072866;28;20444;-79
2022/06/29 01:29:29;;;;;;;0.50;0.40;;;17.00;99.90;;;;;;5072682;28;20527;-79
2022/06/29 01:31:56;;;;;;;0.50;0.40;;;17.00;99.90;;;;;;5072746;28;20492;-78
2022/06/29 01:34:23;;;;;;;0.50;0.40;;;17.00;99.90;;;;;;5072858;28;20538;-79
2022/06/29 01:36:50;;;;;;;0.50;0.40;;;17.10;99.90;;;;;;5072540;28;20443;-79
2022/06/29 01:39:18;;;;;;;0.50;0.40;;;17.00;99.90;;;;;;5072242;28;20479;-78
2022/06/29 01:41:45;;;;;;;0.50;0.40;;;17.00;99.90;;;;;;5072863;28;20526;-79
2022/06/29 01:44:12;;;;;;;0.50;0.40;;;17.00;99.90;;;;;;5072777;28;21043;-78
2022/06/29 01:46:39;;;;;;;0.50;0.37;;;17.00;99.90;;;;;;5072741;28;20850;-79
2022/06/29 01:49:07;;;;;;;0.50;0.40;;;17.00;99.90;;;;;;5072464;28;20444;-78
2022/06/29 01:51:33;;;;;;;0.50;0.40;;;17.00;99.90;;;;;;5072702;28;20447;-79
2022/06/29 01:54:00;;;;;;;0.50;0.40;;;16.90;99.90;;;;;;5072168;28;20515;-79
2022/06/29 01:56:29;;;;;;;0.50;0.30;;;16.90;99.90;;;;;;5072367;28;20487;-79
2022/06/29 01:58:55;;;;;;;0.50;0.37;;;16.90;99.90;;;;;;5071984;28;20952;-78
2022/06/29 02:01:22;;;;;;;0.50;0.40;;;16.90;99.90;;;;;;5072337;28;20471;-79
2022/06/29 02:03:51;;;;;;;0.50;0.40;;;16.90;99.90;;;;;;5071867;28;21061;-79
2022/06/29 02:06:18;;;;;;;0.50;0.30;;;16.90;99.90;;;;;;5072176;28;20436;-79
2022/06/29 02:08:46;;;;;;;0.50;0.40;;;16.80;99.90;;;;;;5071768;28;20440;-78
2022/06/29 02:11:13;;;;;;;0.50;0.40;;;16.80;99.90;;;;;;5072403;28;20452;-78
2022/06/29 02:13:41;;;;;;;0.50;0.40;;;16.70;99.90;;;;;;5071745;28;21095;-77
2022/06/29 02:16:08;;;;;;;0.50;0.40;;;16.70;99.90;;;;;;5072377;28;20449;-78
2022/06/29 02:18:35;;;;;;;0.50;0.40;;;16.70;99.90;;;;;;5071673;28;20445;-78
2022/06/29 02:21:02;;;;;;;0.50;0.40;;;16.80;99.90;;;;;;5072102;28;20445;-78
2022/06/29 02:23:29;;;;;;;0.50;0.40;;;16.70;99.90;;;;;;5072054;28;20882;-78
2022/06/29 02:25:56;;;;;;;0.50;0.30;;;16.80;99.90;;;;;;5071828;28;20881;-78
2022/06/29 02:28:23;;;;;;;0.50;0.40;;;16.80;99.90;;;;;;5071181;28;20532;-79
2022/06/29 02:36:20;;;;;;;0.50;0.37;;;16.80;99.90;;;;;;5072011;28;20909;-79
2022/06/29 02:38:46;;;;;;;0.50;0.40;;;16.80;99.90;;;;;;5070989;28;20774;-78
2022/06/29 02:41:13;;;;;;;0.50;0.30;;;16.90;99.90;;;;;;5071839;28;20537;-79
2022/06/29 02:43:40;;;;;;;0.50;0.40;;;16.90;99.90;;;;;;5071386;28;20457;-78
2022/06/29 02:46:08;;;;;;;0.50;0.37;;;16.90;99.90;;;;;;5072132;28;20441;-79
2022/06/29 02:48:35;;;;;;;0.50;0.37;;;16.80;99.90;;;;;;5071615;28;20542;-79
2022/06/29 02:51:02;;;;;;;0.50;0.40;;;16.80;99.90;;;;;;5071279;28;21009;-79
2022/06/29 02:53:29;;;;;;;0.50;0.40;;;16.70;99.90;;;;;;5071168;28;20479;-78
2022/06/29 02:55:56;;;;;;;0.50;0.40;;;16.80;99.90;;;;;;5071946;28;20537;-79
2022/06/29 02:58:23;;;;;;;0.50;0.33;;;16.80;99.90;;;;;;5071032;28;20463;-77
2022/06/29 03:00:50;;;;;;;0.50;0.30;;;16.80;99.90;;;;;;5071601;28;20540;-77
2022/06/29 03:03:18;;;;;;;0.50;0.40;;;16.80;99.90;;;;;;5071841;28;20484;-79
2022/06/29 03:05:45;;;;;;;0.50;0.40;;;16.70;99.90;;;;;;5071474;28;20467;-79
2022/06/29 03:08:12;;;;;;;0.50;0.40;;;16.80;99.90;;;;;;5071476;28;20878;-79
2022/06/29 03:10:39;;;;;;;0.50;0.30;;;16.70;99.90;;;;;;5071532;28;20518;-76
2022/06/29 03:13:06;;;;;;;0.50;0.40;;;16.70;99.90;;;;;;5072360;28;20519;-79
2022/06/29 03:15:33;;;;;;;0.50;0.37;;;16.80;99.90;;;;;;5071001;28;20446;-79
2022/06/29 03:17:59;;;;;;;0.50;0.30;;;16.80;99.90;;;;;;5071131;28;20436;-78
2022/06/29 03:20:28;;;;;;;0.50;0.30;;;16.70;99.90;;;;;;5071242;28;20519;-78
2022/06/29 03:22:55;;;;;;;0.50;0.37;;;16.70;99.90;;;;;;5071011;28;20539;-78
2022/06/29 03:25:22;;;;;;;0.50;0.40;;;16.70;99.90;;;;;;5070891;28;20450;-78
2022/06/29 03:27:49;;;;;;;0.50;0.40;;;16.70;99.90;;;;;;5070969;28;20544;-79
2022/06/29 03:30:16;;;;;;;0.50;0.40;;;16.70;99.90;;;;;;5070802;28;20475;-78
2022/06/29 03:32:43;;;;;;;0.50;0.40;;;16.70;99.90;;;;;;5070971;28;20914;-77
2022/06/29 03:35:10;;;;;;;0.50;0.40;;;16.70;99.90;;;;;;5070365;28;20524;-78
2022/06/29 03:37:38;;;;;;;0.50;0.40;;;16.70;99.90;;;;;;5071064;28;20443;-79
2022/06/29 03:40:06;;;;;;;0.50;0.37;;;16.70;99.90;;;;;;5070734;28;20526;-79
2022/06/29 03:42:33;;;;;;;0.50;0.40;;;16.70;99.90;;;;;;5070480;28;20541;-78
2022/06/29 03:45:00;;;;;;;0.50;0.30;;;16.60;99.90;;;;;;5070503;28;20892;-77
2022/06/29 03:47:27;;;;;;;0.50;0.40;;;16.60;99.90;;;;;;5074722;28;20526;-79
2022/06/29 03:49:54;;;;;;;0.50;0.40;;;16.60;99.90;;;;;;5086160;28;20938;-78
2022/06/29 03:52:21;;;;;;;0.50;0.40;;;16.50;99.90;;;;;;5086507;28;20457;-79
2022/06/29 03:54:49;;;;;;;0.50;0.40;;;16.50;99.90;;;;;;5084944;28;20502;-78
2022/06/29 03:57:16;;;;;;;0.50;0.40;;;16.50;99.90;;;;;;5074677;28;20463;-78
2022/06/29 03:59:43;;;;;;;0.50;0.30;;;16.50;99.90;;;;;;5075401;28;20483;-77
2022/06/29 04:02:09;;;;;;;0.50;0.40;;;16.50;99.90;;;;;;5074486;28;20469;-79
2022/06/29 04:04:36;;;;;;;0.50;0.30;;;16.60;99.90;;;;;;5074001;28;20446;-78
2022/06/29 04:07:03;;;;;;;0.50;0.40;;;16.60;99.90;;;;;;5073565;28;20478;-77
2022/06/29 04:09:30;;;;;;;0.50;0.30;;;16.70;99.90;;;;;;5074041;28;20527;-77
2022/06/29 04:11:58;;;;;;;0.50;0.40;;;16.70;99.90;;;;;;5074081;28;20470;-77
2022/06/29 04:14:27;;;;;;;0.50;0.40;;;16.60;99.90;;;;;;5073784;28;20475;-78
2022/06/29 04:16:55;;;;;;;0.50;0.40;;;16.70;99.90;;;;;;5073268;28;20538;-77
2022/06/29 04:19:23;;;;;;;0.50;0.40;;;16.60;99.90;;;;;;5073879;28;20543;-78
2022/06/29 04:21:50;;;;;;;0.50;0.37;;;16.70;99.90;;;;;;5074422;28;20450;-78
2022/06/29 04:24:18;;;;;;;0.50;0.40;;;16.70;99.90;;;;;;5073807;28;20868;-78
2022/06/29 04:26:45;;;;;;;0.50;0.40;;;16.80;99.90;;;;;;5073771;28;20439;-77
2022/06/29 04:29:13;;;;;;;0.50;0.33;;;16.90;99.90;;;;;;5073211;28;20478;-79
2022/06/29 04:31:40;;;;;;;0.50;0.40;;;17.00;99.90;;;;;;5073619;28;20859;-78
2022/06/29 04:34:07;;;;;;;0.50;0.40;;;17.00;99.90;;;;;;5073784;28;20575;-78
2022/06/29 04:36:34;;;;;;;0.50;0.40;;;17.10;99.90;;;;;;5073213;28;20471;-78
2022/06/29 04:39:01;;;;;;;0.50;0.30;;;17.10;99.90;;;;;;5073181;28;20435;-79
2022/06/29 04:41:28;;;;;;;0.50;0.40;;;17.20;99.90;;;;;;5073297;28;21017;-79
2022/06/29 04:43:55;;;;;;;0.50;0.40;;;17.20;99.90;;;;;;5073131;28;21132;-78
2022/06/29 04:46:23;;;;;;;0.50;0.40;;;17.20;99.90;;;;;;5073431;28;20527;-77
2022/06/29 04:48:52;;;;;;;0.50;0.40;;;17.30;99.90;;;;;;5072881;28;20432;-78
2022/06/29 04:51:19;;;;;;;0.50;0.40;;;17.30;99.90;;;;;;5073580;28;20448;-78
2022/06/29 04:53:46;;;;;;;0.50;0.40;;;17.30;99.90;;;;;;5073020;28;20960;-77
2022/06/29 04:56:15;;;;;;;0.50;0.40;;;17.30;99.90;;;;;;5072954;28;20643;-78
2022/06/29 04:58:42;;;;;;;0.50;0.40;;;17.30;99.90;;;;;;5071972;28;20467;-77
2022/06/29 05:01:09;;;;;;;0.50;0.30;;;17.30;99.90;;;;;;5073161;28;20439;-78
2022/06/29 05:03:37;;;;;;;0.50;0.30;;;17.30;99.90;;;;;;5072708;28;20648;-78
2022/06/29 05:06:04;;;;;;;0.50;0.40;;;17.30;99.90;;;;;;5073248;28;20530;-77
2022/06/29 05:08:31;;;;;;;0.50;0.30;;;17.30;99.90;;;;;;5072701;28;20521;-78
2022/06/29 05:10:58;;;;;;;0.50;0.30;;;17.30;99.90;;;;;;5073204;28;20474;-78
2022/06/29 05:13:25;;;;;;;0.50;0.40;;;17.30;99.90;;;;;;5072206;28;21075;-79
2022/06/29 05:15:52;;;;;;;0.50;0.30;;;17.40;99.90;;;;;;5073008;28;20529;-78
2022/06/29 05:18:19;;;;;;;0.50;0.30;;;17.50;99.90;;;;;;5072776;28;20933;-78
2022/06/29 05:20:47;;;;;;;0.50;0.30;;;17.70;99.90;;;;;;5072820;28;20446;-78
2022/06/29 05:23:14;;;;;;;0.50;0.40;;;17.90;99.90;;;;;;5072345;28;20541;-77
2022/06/29 05:25:41;;;;;;;0.50;0.30;;;17.90;99.90;;;;;;5072773;28;20445;-78
2022/06/29 05:28:08;;;;;;;0.50;0.30;;;18.00;99.90;;;;;;5072094;28;20531;-78
2022/06/29 05:30:35;;;;;;;0.50;0.30;;;18.10;99.90;;;;;;5072314;28;20944;-77
2022/06/29 05:33:02;;;;;;;0.50;0.30;;;18.30;99.90;;;;;;5072853;28;20963;-78
2022/06/29 05:35:33;;;;;;;0.50;0.30;;;18.40;99.90;;;;;;5072201;28;20494;-79
2022/06/29 05:38:01;;;;;;;0.60;0.40;;;18.60;99.90;;;;;;5072223;28;20522;-79
2022/06/29 05:40:28;;;;;;;0.50;0.40;;;18.80;99.90;;;;;;5072088;28;20447;-78
2022/06/29 05:42:57;;;;;;;0.50;0.30;;;19.10;99.90;;;;;;5072538;28;20875;-78
2022/06/29 05:45:24;;;;;;;0.50;0.30;;;19.30;99.90;;;;;;5072501;28;20439;-79
2022/06/29 05:47:51;;;;;;;0.50;0.30;;;19.60;99.90;;;;;;5072346;28;20790;-78
2022/06/29 05:50:18;;;;;;;0.50;0.40;;;19.80;99.90;;;;;;5072287;28;21005;-77
2022/06/29 05:52:45;;;;;;;0.50;0.30;;;19.90;99.90;;;;;;5072341;28;20869;-77
2022/06/29 05:55:13;;;;;;;0.50;0.40;;;20.10;99.90;;;;;;5072042;28;20476;-78
2022/06/29 05:57:40;;;;;;;0.50;0.40;;;20.30;99.90;;;;;;5072454;28;20881;-78
2022/06/29 06:00:10;;;;;;;0.50;0.40;;;20.50;99.90;;;;;;5072152;28;20536;-77
2022/06/29 06:02:37;;;;;;;0.50;0.30;;;20.80;99.90;;;;;;5072185;28;20464;-78
2022/06/29 06:05:04;;;;;;;0.50;0.40;;;20.90;99.90;;;;;;5075010;28;20432;-78
2022/06/29 06:07:31;;;;;;;0.50;0.30;;;21.00;99.90;;;;;;5072281;28;20787;-79
2022/06/29 06:09:58;;;;;;;0.50;0.30;;;21.20;99.90;;;;;;5072092;28;20526;-77
2022/06/29 06:12:26;;;;;;;0.50;0.30;;;21.30;99.90;;;;;;5072201;28;20464;-79
2022/06/29 06:14:53;;;;;;;0.50;0.30;;;21.50;99.90;;;;;;5124046;22;20524;-82
2022/06/29 06:17:20;;;;;;;0.50;0.30;;;21.60;99.90;;;;;;5061770;28;20443;-83
2022/06/29 06:19:47;;;;;;;0.50;0.40;;;21.60;99.90;;;;;;5082967;28;21066;-82
2022/06/29 06:22:13;;;;;;;0.50;0.30;;;21.50;99.90;;;;;;5077885;28;20471;-83
2022/06/29 06:24:40;;;;;;;0.50;0.30;;;21.50;99.90;;;;;;5098004;28;20451;-83
2022/06/29 06:27:08;;;;;;;0.50;0.30;;;21.50;99.90;;;;;;5098531;28;20439;-82
2022/06/29 06:29:36;;;;;;;0.50;0.40;;;21.60;99.90;;;;;;5097432;28;20917;-82
2022/06/29 06:32:04;;;;;;;0.50;0.40;;;21.60;99.90;;;;;;5098137;28;20522;-83
2022/06/29 06:34:31;;;;;;;0.50;0.30;;;21.60;99.90;;;;;;5098432;28;20471;-83
2022/06/29 06:36:59;;;;;;;0.50;0.33;;;21.40;99.90;;;;;;5097712;28;20523;-83
2022/06/29 06:39:26;;;;;;;3.90;3.70;;;21.30;99.90;;;;;;5097495;28;20436;-83
2022/06/29 06:41:51;;;;;;;0.50;0.40;;;21.40;99.90;;;;;;5097526;28;20455;-84
2022/06/29 06:44:18;;;;;;;0.50;0.40;;;21.40;99.90;;;;;;5097370;28;20469;-84
2022/06/29 06:46:48;;;;;;;0.50;0.30;;;21.50;99.90;;;;;;5098218;28;20227;-83
2022/06/29 06:49:15;;;;;;;0.50;0.30;;;21.80;99.90;;;;;;5097174;28;20439;-83
2022/06/29 06:51:42;;;;;;;0.50;0.30;;;22.00;99.90;;;;;;5097487;28;20442;-84
2022/06/29 06:54:09;;;;;;;0.50;0.37;;;22.40;99.90;;;;;;5097239;28;21083;-82
2022/06/29 06:56:36;;;;;;;0.50;0.37;;;22.90;99.90;;;;;;5097599;28;20518;-83
2022/06/29 06:59:03;;;;;;;0.50;0.40;;;23.90;99.90;;;;;;5096485;28;20498;-82
2022/06/29 07:01:29;;;;;;;0.53;0.40;;;25.80;99.90;;;;;;5098161;28;20475;-80
2022/06/29 07:03:58;;;;;;;0.50;0.30;;;27.30;99.90;;;;;;5097808;28;20457;-84
2022/06/29 07:06:25;;;;;;;0.50;0.30;;;28.60;95.70;;;;;;5097792;28;20450;-81
2022/06/29 07:08:54;;;;;;;0.50;0.30;;;30.30;86.50;;;;;;5096021;28;20439;-83
2022/06/29 07:11:21;;;;;;;0.50;0.30;;;31.90;76.70;;;;;;5097566;28;20850;-82
2022/06/29 07:13:48;;;;;;;0.50;0.30;;;32.50;65.30;;;;;;5098354;28;20566;-83
2022/06/29 07:16:15;;;;;;;0.50;0.40;;;32.40;62.10;;;;;;5097893;28;20454;-83
2022/06/29 07:18:42;;;;;;;0.50;0.30;;;32.40;61.10;;;;;;5098543;28;20439;-80
2022/06/29 07:21:10;;;;;;;0.50;0.30;;;32.20;61.20;;;;;;5099691;28;20475;-84
2022/06/29 07:23:37;;;;;;;0.50;0.30;;;31.70;62.20;;;;;;5100674;28;20443;-84
2022/06/29 07:26:05;;;;;;;0.50;0.40;;;30.60;61.60;;;;;;5100579;28;20427;-83
2022/06/29 07:28:32;;;;;;;0.50;0.40;;;29.60;64.10;;;;;;5101316;28;20453;-84
2022/06/29 07:30:59;;;;;;;0.50;0.30;;;28.40;64.60;;;;;;5102928;28;20480;-84
2022/06/29 07:33:26;;;;;;;0.50;0.30;;;27.50;66.80;;;;;;5102473;28;20530;-84
2022/06/29 07:35:53;;;;;;;0.50;0.30;;;26.80;69.70;;;;;;5102637;28;20861;-83
2022/06/29 07:38:21;;;;;;;0.50;0.30;;;26.30;72.20;;;;;;5101732;28;20952;-84
2022/06/29 07:40:48;;;;;;;0.50;0.30;;;25.90;75.40;;;;;;5101354;28;20609;-83
2022/06/29 07:43:15;;;;;;;0.50;0.30;;;25.70;76.50;;;;;;5101814;28;20679;-84
2022/06/29 07:45:42;;;;;;;0.50;0.40;;;25.40;77.80;;;;;;5100379;28;20878;-83
2022/06/29 07:48:10;;;;;;;0.50;0.30;;;25.00;80.90;;;;;;5100537;28;20449;-84
2022/06/29 07:50:37;;;;;;;0.50;0.30;;;24.80;85.40;;;;;;5100393;28;20443;-84
2022/06/29 07:53:03;;;;;;;0.50;0.30;;;24.70;89.30;;;;;;5100963;28;20538;-84
2022/06/29 07:55:32;;;;;;;0.50;0.30;;;24.70;93.00;;;;;;5101070;28;21008;-84
2022/06/29 07:57:58;;;;;;;0.50;0.30;;;24.70;99.90;;;;;;5100924;28;20539;-84
2022/06/29 08:00:26;;;;;;;0.50;0.30;;;24.70;99.90;;;;;;5101094;28;20543;-84
2022/06/29 08:02:53;;;;;;;0.50;0.30;;;24.70;99.90;;;;;;5100562;28;20521;-84
2022/06/29 08:05:20;;;;;;;0.50;0.30;;;24.60;99.90;;;;;;5100345;28;20486;-84
2022/06/29 08:07:47;;;;;;;0.50;0.30;;;24.50;99.90;;;;;;5100249;28;20435;-84
2022/06/29 08:10:14;;;;;;;0.50;0.30;;;24.40;99.90;;;;;;5100175;28;20474;-84
2022/06/29 08:12:42;;;;;;;0.50;0.30;;;24.40;99.90;;;;;;5101201;28;20518;-84
2022/06/29 08:15:10;;;;;;;0.50;0.30;;;24.40;99.90;;;;;;5099977;28;20551;-84
2022/06/29 08:17:37;;;;;;;0.50;0.30;;;24.30;99.90;;;;;;5100149;28;20803;-83
2022/06/29 08:20:05;;;;;;;0.50;0.30;;;24.10;99.90;;;;;;5100034;28;20467;-84
2022/06/29 08:22:33;;;;;;;0.50;0.30;;;24.10;99.90;;;;;;5100185;28;20516;-82
2022/06/29 08:24:59;;;;;;;0.50;0.30;;;24.20;99.90;;;;;;5100064;28;20454;-84
2022/06/29 08:27:26;;;;;;;0.50;0.30;;;24.30;99.90;;;;;;5099318;28;20471;-81
2022/06/29 08:29:55;;;;;;;0.50;0.30;;;24.30;99.90;;;;;;5099606;28;20540;-83
2022/06/29 08:32:21;;;;;;;0.50;0.40;;;24.40;99.90;;;;;;5100217;28;20439;-82
2022/06/29 08:34:48;;;;;;;0.50;0.30;;;24.50;99.90;;;;;;5099399;28;20570;-83
2022/06/29 08:37:15;;;;;;;0.50;0.30;;;24.60;99.90;;;;;;5100023;28;20439;-84
2022/06/29 08:39:42;;;;;;;0.50;0.30;;;24.70;99.90;;;;;;5099326;28;20493;-84
2022/06/29 08:42:09;;;;;;;0.50;0.30;;;24.80;99.90;;;;;;5100445;28;20478;-83
2022/06/29 08:44:39;;;;;;;0.50;0.30;;;24.90;99.90;;;;;;5101990;28;20482;-82
2022/06/29 08:47:09;;;;;;;0.50;0.30;;;24.90;99.90;;;;;;5102713;28;20914;-82
2022/06/29 08:49:37;;;;;;;0.50;0.30;;;24.80;99.90;;;;;;5100080;28;20439;-82
2022/06/29 08:52:05;;;;;;;0.50;0.30;;;24.80;99.90;;;;;;5099665;28;20436;-82
2022/06/29 08:54:36;;;;;;;0.50;0.30;;;24.90;99.90;;;;;;5099534;28;20518;-82
2022/06/29 08:57:04;;;;;;;0.50;0.30;;;24.80;99.90;;;;;;5100407;28;20503;-82
2022/06/29 08:59:33;;;;;;;0.50;0.30;;;24.90;99.90;;;;;;5099210;28;20463;-82
2022/06/29 09:02:00;;;;;;;0.50;0.30;;;25.00;99.90;;;;;;5099904;28;20466;-84
2022/06/29 09:04:29;;;;;;;0.50;0.30;;;25.10;99.90;;;;;;5099847;28;20451;-84
2022/06/29 09:06:57;;;;;;;0.50;0.30;;;25.20;99.90;;;;;;5099685;28;20478;-84
2022/06/29 09:09:25;;;;;;;0.50;0.40;;;25.20;99.90;;;;;;5098778;28;20485;-84
2022/06/29 09:11:53;;;;;;;0.50;0.30;;;24.70;96.50;;;;;;5099460;28;20441;-84
2022/06/29 09:14:21;;;;;;;0.50;0.30;;;24.70;96.60;;;;;;5099130;28;20999;-84
2022/06/29 09:16:56;;;;;;;0.50;0.30;;;24.50;96.00;;;;;;5099238;28;20467;-84
2022/06/29 09:19:25;;;;;;;0.50;0.40;;;24.30;96.00;;;;;;5099883;28;20423;-83
2022/06/29 09:21:55;;;;;;;0.50;0.30;;;24.30;97.20;;;;;;5098961;28;20538;-84
2022/06/29 09:24:24;;;;;;;0.50;0.30;;;24.30;95.70;;;;;;5098952;28;20486;-81
2022/06/29 09:26:51;;;;;;;0.50;0.30;;;24.40;99.90;;;;;;5100098;28;20467;-83
2022/06/29 09:29:22;;;;;;;0.50;0.40;;;24.40;96.90;;;;;;5099937;28;20447;-82
2022/06/29 09:32:13;;;;;;;0.50;0.30;;;24.40;99.20;;;;;;5100211;28;20450;-84
2022/06/29 09:34:41;;;;;;;0.50;0.30;;;24.50;98.80;;;;;;5099955;28;20551;-84
2022/06/29 09:37:12;;;;;;;0.50;0.33;;;24.60;98.00;;;;;;5099427;28;20447;-84
2022/06/29 09:39:41;;;;;;;0.50;0.30;;;24.70;99.80;;;;;;5105303;28;20423;-83
2022/06/29 09:42:11;;;;;;;0.50;0.40;;;25.00;99.90;;;;;;5101083;28;20470;-83
2022/06/29 09:44:38;;;;;;;0.50;0.30;;;25.10;93.50;;;;;;5100023;28;20487;-83
2022/06/29 09:47:07;;;;;;;1.23;1.13;;;25.10;95.50;;;;;;5101059;28;20461;-83
2022/06/29 09:49:36;;;;;;;0.50;0.30;;;25.20;94.50;;;;;;5100067;28;20443;-84
2022/06/29 09:52:05;;;;;;;0.50;0.40;;;25.30;95.10;;;;;;5099693;28;20990;-84
2022/06/29 09:54:37;;;;;;;0.50;0.30;;;25.50;95.80;;;;;;5099885;28;20507;-83
2022/06/29 09:57:05;;;;;;;0.50;0.30;;;25.60;94.00;;;;;;5098637;28;20510;-83
2022/06/29 10:02:36;;;;;;;0.50;0.30;;;25.70;94.40;;;;;;5097717;28;20414;-83
2022/06/29 10:05:09;;;;;;;0.50;0.30;;;25.70;92.90;;;;;;5098217;28;20459;-83
2022/06/29 10:07:38;;;;;;;0.50;0.30;;;25.80;92.40;;;;;;5097428;28;20933;-83
2022/06/29 10:10:09;;;;;;;0.50;0.30;;;25.90;91.20;;;;;;5098590;28;20531;-82
2022/06/29 10:16:16;;;;;;;0.50;0.30;;;26.30;91.10;;;;;;5098974;28;20479;-84
2022/06/29 10:18:56;;;;;;;0.50;0.30;;;26.40;86.00;;;;;;5099279;28;20522;-84
2022/06/29 10:21:27;;;;;;;0.50;0.30;;;26.50;88.50;;;;;;5099645;28;20432;-83
2022/06/29 10:23:56;;;;;;;0.50;0.30;;;26.80;90.10;;;;;;5099008;28;20458;-84
2022/06/29 10:26:45;;;;;;;0.50;0.30;;;27.20;84.60;;;;;;5099184;28;20431;-84
2022/06/29 10:29:29;;;;;;;0.50;0.30;;;27.50;81.60;;;;;;5097256;28;20451;-84
2022/06/29 10:32:12;;;;;;;0.50;0.30;;;27.90;82.70;;;;;;5098138;28;20439;-84
2022/06/29 10:35:05;;;;;;;0.50;0.30;;;28.20;78.40;;;;;;5098410;28;20574;-84
2022/06/29 10:37:30;;;;;;;0.50;0.30;;;28.30;77.20;;;;;;5096472;28;20427;-84
2022/06/29 10:40:00;;;;;;;0.50;0.30;;;28.40;77.00;;;;;;5098260;28;20444;-84
2022/06/29 10:45:25;;;;;;;0.50;0.30;;;28.30;77.00;;;;;;5097319;28;20426;-81
2022/06/29 10:48:31;;;;;;;0.50;0.30;;;28.30;75.90;;;;;;5098061;28;20435;-84
2022/06/29 10:50:58;;;;;;;0.50;0.30;;;28.30;76.80;;;;;;5098429;28;20443;-84
2022/06/29 10:53:26;;;;;;;0.50;0.30;;;28.50;76.40;;;;;;5098789;28;20504;-84
2022/06/29 10:55:56;;;;;;;0.50;0.30;;;28.70;74.10;;;;;;5101408;28;20507;-84
2022/06/29 10:58:25;;;;;;;0.50;0.30;;;28.60;74.50;;;;;;5105371;28;20459;-83
2022/06/29 11:00:53;;;;;;;0.50;0.30;;;28.70;73.30;;;;;;5101525;28;20542;-84
2022/06/29 11:03:23;;;;;;;0.50;0.30;;;28.80;74.40;;;;;;5101737;28;20470;-83
2022/06/29 11:15:39;;;;;;;0.50;0.30;;;31.20;71.40;;;;;;5102106;28;20449;-83
2022/06/29 11:16:57;;;;;;;0.50;0.30;;;31.90;66.50;;;;;;5102919;28;20423;-83
2022/06/29 11:19:30;;;;;;;0.50;0.30;;;32.10;65.00;;;;;;5102855;28;20439;-83
2022/06/29 11:22:11;;;;;;;0.50;0.30;;;31.90;62.50;;;;;;5102502;28;20442;-83
2022/06/29 11:24:52;;;;;;;0.50;0.30;;;31.60;64.50;;;;;;5101587;28;20461;-83
2022/06/29 11:27:39;;;;;;;0.50;0.30;;;31.40;63.30;;;;;;5101022;28;20466;-83
2022/06/29 11:30:09;;;;;;;0.50;0.30;;;30.90;64.50;;;;;;5101994;28;20459;-83
2022/06/29 11:32:41;;;;;;;0.50;0.30;;;30.80;66.50;;;;;;5101739;28;20467;-83
2022/06/29 11:35:09;;;;;;;0.50;0.30;;;30.80;68.60;;;;;;5101124;28;20529;-80
2022/06/29 11:37:36;;;;;;;0.50;0.30;;;31.00;65.90;;;;;;5101788;28;20467;-83
2022/06/29 11:40:04;;;;;;;0.50;0.30;;;31.30;64.90;;;;;;5102102;28;20490;-83
2022/06/29 11:45:18;;;;;;;0.50;0.40;;;31.90;62.10;;;;;;5101469;28;20481;-83
2022/06/29 11:47:53;;;;;;;0.50;0.47;;;31.80;59.70;;;;;;5101052;28;20474;-83
2022/06/29 11:50:20;;;;;;;0.50;0.30;;;31.70;60.30;;;;;;5100991;28;20442;-83
2022/06/29 11:52:49;;;;;;;0.50;0.30;;;31.50;59.90;;;;;;5101012;28;20443;-83
2022/06/29 11:55:16;;;;;;;0.50;0.30;;;31.00;59.90;;;;;;5101060;28;20901;-82
2022/06/29 11:57:43;;;;;;;0.50;0.30;;;30.90;60.80;;;;;;5101135;28;20523;-83
2022/06/29 12:00:11;;;;;;;0.50;0.50;;;31.50;64.80;;;;;;5101838;28;20463;-83
2022/06/29 12:02:40;;;;;;;0.50;0.30;;;31.90;59.80;;;;;;5100471;28;20439;-82
2022/06/29 12:05:07;;;;;;;0.50;0.30;;;31.20;59.40;;;;;;5101244;28;20479;-83
2022/06/29 12:07:35;;;;;;;0.57;0.57;;;31.20;59.40;;;;;;5099925;28;20435;-83
2022/06/29 12:10:02;;;;;;;0.50;0.30;;;31.20;58.90;;;;;;5101292;28;20509;-83
2022/06/29 12:12:29;;;;;;;0.50;0.30;;;31.30;58.20;;;;;;5100099;28;20435;-83
2022/06/29 12:14:56;;;;;;;0.50;0.40;;;31.40;57.90;;;;;;5101331;28;20473;-83
2022/06/29 12:17:23;;;;;;;0.50;0.30;;;31.30;57.10;;;;;;5100364;28;20536;-80
2022/06/29 12:19:51;;;;;;;0.50;0.30;;;31.30;57.10;;;;;;5100588;28;20480;-83
